createdAt,value
2016-11-24T00:00:07.477Z,12.11
2016-11-24T00:01:17.826Z,12.2
2016-11-24T00:02:27.566Z,12.13
2016-11-24T00:03:37.920Z,12.18
2016-11-24T00:04:48.268Z,12.29
2016-11-24T00:05:58.625Z,12.19
2016-11-24T00:07:08.996Z,12.22
2016-11-24T00:08:18.718Z,12.19
2016-11-24T00:09:29.069Z,12.23
2016-11-24T00:10:39.135Z,12.22
2016-11-24T00:11:49.479Z,12.31
2016-11-24T00:12:59.506Z,12.28
2016-11-24T00:14:10.048Z,12.25
2016-11-24T00:15:20.089Z,12.29
2016-11-24T00:16:29.544Z,12.29
2016-11-24T00:17:39.896Z,12.37
2016-11-24T00:18:50.245Z,12.26
2016-11-24T00:20:00.292Z,12.26
2016-11-24T00:21:10.657Z,12.23
2016-11-24T00:22:20.723Z,12.19
2016-11-24T00:23:31.056Z,12.15
2016-11-24T00:24:41.082Z,12.16
2016-11-24T00:25:51.426Z,12.11
2016-11-24T00:27:01.775Z,12.23
2016-11-24T00:28:11.811Z,12.13
2016-11-24T00:29:21.229Z,12.22
2016-11-24T00:30:31.270Z,12.22
2016-11-24T00:31:41.623Z,12.2
2016-11-24T00:32:51.680Z,12.15
2016-11-24T00:34:01.767Z,12.16
2016-11-24T00:35:12.124Z,12.15
2016-11-24T00:36:22.483Z,12.16
2016-11-24T00:37:32.872Z,12.16
2016-11-24T00:38:43.216Z,12.18
2016-11-24T00:39:53.564Z,12.15
2016-11-24T00:41:03.921Z,12.19
2016-11-24T00:42:13.984Z,12.08
2016-11-24T00:43:24.349Z,12.15
2016-11-24T00:44:34.383Z,12.1
2016-11-24T00:45:44.797Z,12.18
2016-11-24T00:46:55.150Z,12.13
2016-11-24T00:48:05.188Z,12.08
2016-11-24T00:49:14.631Z,12.16
2016-11-24T00:50:24.686Z,12.22
2016-11-24T00:51:34.724Z,12.08
2016-11-24T00:52:45.074Z,12.04
2016-11-24T00:53:55.119Z,12.07
2016-11-24T00:55:05.141Z,12.1
2016-11-24T00:56:15.484Z,12.05
2016-11-24T00:57:25.566Z,12.08
2016-11-24T00:58:35.916Z,12.15
2016-11-24T00:59:46.262Z,12.16
2016-11-24T01:00:56.289Z,12.18
2016-11-24T01:02:06.651Z,12.18
2016-11-24T01:03:16.673Z,12.08
2016-11-24T01:04:27.021Z,12.16
2016-11-24T01:05:37.049Z,12.08
2016-11-24T01:06:47.067Z,12.03
2016-11-24T01:07:57.115Z,12.07
2016-11-24T01:09:07.157Z,12.04
2016-11-24T01:10:17.511Z,12.15
2016-11-24T01:11:27.864Z,12.16
2016-11-24T01:12:38.217Z,12.1
2016-11-24T01:13:48.569Z,12.15
2016-11-24T01:14:58.653Z,12.16
2016-11-24T01:16:08.998Z,12.1
2016-11-24T01:17:19.342Z,12.18
2016-11-24T01:18:29.370Z,12.1
2016-11-24T01:19:39.406Z,12.13
2016-11-24T01:20:49.761Z,12.11
2016-11-24T01:21:59.814Z,12.11
2016-11-24T01:23:09.876Z,12.11
2016-11-24T01:24:20.234Z,12.19
2016-11-24T01:25:30.295Z,12.23
2016-11-24T01:26:40.642Z,12.13
2016-11-24T01:27:50.063Z,12.18
2016-11-24T01:29:00.402Z,12.18
2016-11-24T01:30:09.519Z,12.16
2016-11-24T01:31:19.875Z,12.13
2016-11-24T01:32:30.212Z,12.11
2016-11-24T01:33:40.560Z,12.18
2016-11-24T01:34:50.901Z,12.18
2016-11-24T01:36:00.956Z,12.23
2016-11-24T01:37:11.002Z,12.23
2016-11-24T01:38:20.785Z,12.22
2016-11-24T01:39:30.821Z,12.25
2016-11-24T01:40:40.860Z,12.15
2016-11-24T01:41:50.915Z,12.16
2016-11-24T01:43:00.647Z,12.15
2016-11-24T01:44:10.989Z,12.18
2016-11-24T01:45:21.029Z,12.16
2016-11-24T01:46:31.407Z,12.08
2016-11-24T01:47:41.455Z,12.08
2016-11-24T01:48:51.781Z,12.11
2016-11-24T01:50:02.194Z,12.15
2016-11-24T01:51:12.542Z,12.22
2016-11-24T01:52:22.265Z,12.1
2016-11-24T01:53:32.615Z,12.19
2016-11-24T01:54:42.985Z,12.16
2016-11-24T01:55:53.314Z,12.16
2016-11-24T01:57:03.342Z,12.15
2016-11-24T01:58:13.373Z,12.15
2016-11-24T01:59:23.105Z,12.13
2016-11-24T02:00:33.503Z,12.15
2016-11-24T02:01:43.834Z,12.08
2016-11-24T02:02:54.173Z,12.11
2016-11-24T02:04:04.228Z,12.15
2016-11-24T02:05:14.263Z,12.15
2016-11-24T02:06:24.340Z,12.15
2016-11-24T02:07:34.063Z,12.15
2016-11-24T02:08:44.427Z,12.18
2016-11-24T02:09:54.800Z,12.1
2016-11-24T02:11:04.498Z,12.16
2016-11-24T02:12:14.538Z,12.2
2016-11-24T02:13:24.572Z,12.13
2016-11-24T02:14:34.601Z,12.15
2016-11-24T02:15:44.629Z,12.08
2016-11-24T02:16:54.655Z,12.05
2016-11-24T02:18:04.672Z,12.08
2016-11-24T02:19:14.709Z,12.03
2016-11-24T02:20:24.750Z,12.05
2016-11-24T02:21:34.785Z,12.07
2016-11-24T02:22:45.131Z,12.11
2016-11-24T02:23:55.498Z,12.03
2016-11-24T02:25:05.544Z,12.07
2016-11-24T02:26:15.896Z,12.07
2016-11-24T02:27:25.931Z,11.98
2016-11-24T02:28:36.289Z,12.04
2016-11-24T02:29:46.039Z,11.89
2016-11-24T02:30:56.390Z,11.89
2016-11-24T02:32:06.743Z,11.91
2016-11-24T02:33:16.788Z,11.89
2016-11-24T02:34:27.128Z,11.88
2016-11-24T02:35:37.478Z,11.94
2016-11-24T02:36:47.835Z,11.89
2016-11-24T02:37:57.896Z,11.94
2016-11-24T02:39:08.234Z,11.94
2016-11-24T02:40:17.952Z,11.91
2016-11-24T02:41:27.982Z,12.03
2016-11-24T02:42:38.343Z,11.88
2016-11-24T02:43:48.385Z,11.89
2016-11-24T02:44:58.105Z,11.88
2016-11-24T02:46:07.819Z,11.97
2016-11-24T02:47:17.855Z,12.05
2016-11-24T02:48:28.213Z,11.97
2016-11-24T02:49:38.549Z,11.97
2016-11-24T02:50:48.583Z,12.03
2016-11-24T02:51:58.618Z,12.01
2016-11-24T02:53:08.989Z,12.03
2016-11-24T02:54:19.016Z,12.01
2016-11-24T02:55:28.736Z,11.94
2016-11-24T02:56:39.090Z,11.91
2016-11-24T02:57:48.495Z,11.91
2016-11-24T02:58:58.202Z,11.79
2016-11-24T03:00:08.565Z,11.89
2016-11-24T03:01:18.593Z,11.86
2016-11-24T03:32:40.672Z,8.8
2016-11-24T03:33:50.688Z,8.72
2016-11-24T03:35:01.020Z,8.69
2016-11-24T03:36:11.369Z,8.82
2016-11-24T03:37:21.739Z,8.89
2016-11-24T03:38:31.761Z,8.98
2016-11-24T03:39:42.112Z,9.17
2016-11-24T03:40:52.444Z,9.3
2016-11-24T03:42:03.011Z,9.44
2016-11-24T03:43:13.376Z,9.56
2016-11-24T03:44:23.731Z,9.7
2016-11-24T03:45:33.459Z,9.85
2016-11-24T03:46:43.486Z,9.98
2016-11-24T03:47:53.827Z,10.11
2016-11-24T03:49:03.847Z,10.25
2016-11-24T03:50:14.182Z,10.39
2016-11-24T03:51:24.535Z,10.52
2016-11-24T03:52:34.579Z,10.57
2016-11-24T03:53:44.536Z,10.69
2016-11-24T03:54:54.584Z,10.84
2016-11-24T03:56:04.297Z,10.87
2016-11-24T03:57:14.010Z,10.97
2016-11-24T03:58:24.049Z,11.06
2016-11-24T03:59:34.092Z,11.06
2016-11-24T04:00:44.472Z,11.1
2016-11-24T04:01:55.064Z,11.15
2016-11-24T04:03:05.416Z,11.24
2016-11-24T04:04:15.781Z,11.38
2016-11-24T04:05:25.858Z,11.38
2016-11-24T04:06:35.888Z,11.38
2016-11-24T04:07:46.266Z,11.39
2016-11-24T04:08:56.605Z,11.41
2016-11-24T04:10:06.615Z,11.43
2016-11-24T04:11:16.974Z,11.45
2016-11-24T04:12:26.381Z,11.49
2016-11-24T04:13:36.437Z,11.46
2016-11-24T04:14:46.146Z,11.42
2016-11-24T04:15:56.525Z,11.53
2016-11-24T04:17:06.875Z,11.56
2016-11-24T04:18:16.608Z,11.51
2016-11-24T04:19:26.992Z,11.51
2016-11-24T04:20:37.023Z,11.49
2016-11-24T04:21:47.599Z,11.49
2016-11-24T04:22:57.656Z,11.45
2016-11-24T04:24:08.012Z,11.53
2016-11-24T04:25:18.066Z,11.56
2016-11-24T04:26:27.789Z,11.56
2016-11-24T04:27:37.816Z,11.46
2016-11-24T04:28:48.169Z,11.56
2016-11-24T04:29:57.943Z,11.56
2016-11-24T04:31:08.284Z,11.48
2016-11-24T04:32:18.624Z,11.46
2016-11-24T04:33:28.654Z,11.45
2016-11-24T04:34:39.014Z,11.39
2016-11-24T04:35:48.725Z,11.35
2016-11-24T04:36:58.761Z,11.39
2016-11-24T04:38:08.481Z,11.43
2016-11-24T04:39:18.589Z,11.42
2016-11-24T04:40:28.926Z,11.42
2016-11-24T04:41:38.973Z,11.34
2016-11-24T04:42:49.021Z,11.31
2016-11-24T04:43:59.066Z,11.39
2016-11-24T04:45:09.102Z,11.28
2016-11-24T04:46:18.825Z,11.28
2016-11-24T04:47:28.556Z,11.34
2016-11-24T04:48:38.901Z,11.27
2016-11-24T04:49:48.937Z,11.38
2016-11-24T04:50:59.277Z,11.41
2016-11-24T04:52:09.349Z,11.34
2016-11-24T04:53:19.075Z,11.45
2016-11-24T04:54:29.107Z,11.41
2016-11-24T04:55:39.141Z,11.39
2016-11-24T04:56:49.164Z,11.34
2016-11-24T04:57:59.194Z,11.33
2016-11-24T04:59:09.219Z,11.41
2016-11-24T05:00:19.262Z,11.38
2016-11-24T05:01:29.288Z,11.35
2016-11-24T05:02:39.330Z,11.28
2016-11-24T05:03:49.049Z,11.27
2016-11-24T05:04:58.760Z,11.26
2016-11-24T05:06:08.480Z,11.23
2016-11-24T05:07:18.828Z,11.24
2016-11-24T05:08:28.873Z,11.33
2016-11-24T05:09:38.599Z,11.21
2016-11-24T05:10:48.636Z,11.28
2016-11-24T05:11:59.023Z,11.23
2016-11-24T05:13:09.097Z,11.23
2016-11-24T05:14:18.821Z,11.16
2016-11-24T05:15:29.167Z,11.2
2016-11-24T05:16:39.513Z,11.15
2016-11-24T05:17:49.870Z,11.1
2016-11-24T05:19:00.218Z,11.13
2016-11-24T05:20:10.244Z,11.1
2016-11-24T05:21:20.586Z,11.16
2016-11-24T05:22:30.621Z,11.03
2016-11-24T05:23:40.650Z,11.12
2016-11-24T05:24:50.375Z,10.98
2016-11-24T05:26:00.095Z,11.02
2016-11-24T05:27:09.210Z,10.94
2016-11-24T05:28:19.244Z,10.94
2016-11-24T05:29:29.595Z,10.9
2016-11-24T05:30:39.318Z,11.05
2016-11-24T05:31:49.658Z,10.97
2016-11-24T05:33:00.004Z,10.92
2016-11-24T05:34:09.726Z,10.88
2016-11-24T05:35:20.077Z,10.85
2016-11-24T05:36:29.823Z,10.76
2016-11-24T05:37:39.552Z,10.83
2016-11-24T05:38:49.599Z,10.84
2016-11-24T05:39:59.317Z,10.61
2016-11-24T05:41:09.392Z,10.76
2016-11-24T05:42:19.413Z,10.79
2016-11-24T05:43:29.440Z,10.73
2016-11-24T05:44:40.023Z,10.79
2016-11-24T05:45:50.076Z,10.76
2016-11-24T05:47:00.125Z,10.72
2016-11-24T05:48:10.194Z,10.7
2016-11-24T05:49:20.224Z,10.72
2016-11-24T05:50:30.270Z,10.66
2016-11-24T05:51:40.605Z,10.65
2016-11-24T05:52:50.712Z,10.69
2016-11-24T05:54:00.439Z,10.73
2016-11-24T05:55:10.496Z,10.73
2016-11-24T05:56:20.553Z,10.61
2016-11-24T05:57:30.920Z,10.8
2016-11-24T05:58:40.650Z,10.76
2016-11-24T05:59:50.983Z,10.79
2016-11-24T06:01:00.705Z,10.73
2016-11-24T06:02:10.735Z,10.66
2016-11-24T06:03:20.467Z,10.72
2016-11-24T06:04:30.502Z,10.7
2016-11-24T06:05:40.583Z,10.75
2016-11-24T06:06:50.955Z,10.69
2016-11-24T06:08:01.025Z,10.72
2016-11-24T06:09:11.373Z,10.79
2016-11-24T06:10:21.100Z,10.77
2016-11-24T06:11:31.134Z,10.76
2016-11-24T06:12:41.195Z,10.76
2016-11-24T06:13:51.571Z,10.79
2016-11-24T06:15:01.923Z,10.69
2016-11-24T06:16:12.275Z,10.61
2016-11-24T06:17:22.625Z,10.66
2016-11-24T06:18:32.968Z,10.66
2016-11-24T06:19:42.680Z,10.59
2016-11-24T06:20:53.026Z,10.52
2016-11-24T06:22:03.055Z,10.51
2016-11-24T06:23:13.083Z,10.54
2016-11-24T06:24:22.467Z,10.47
2016-11-24T06:25:32.816Z,10.54
2016-11-24T06:26:43.168Z,10.55
2016-11-24T06:27:53.533Z,10.52
2016-11-24T06:29:03.889Z,10.47
2016-11-24T06:30:14.255Z,10.54
2016-11-24T06:31:24.277Z,10.41
2016-11-24T06:32:34.325Z,10.39
2016-11-24T06:33:44.346Z,10.42
2016-11-24T06:34:54.379Z,10.35
2016-11-24T06:36:04.713Z,10.42
2016-11-24T06:37:14.751Z,10.33
2016-11-24T06:38:24.473Z,10.38
2016-11-24T06:39:34.854Z,10.36
2016-11-24T06:40:45.188Z,10.36
2016-11-24T06:41:55.236Z,10.36
2016-11-24T06:43:04.967Z,10.39
2016-11-24T06:44:14.997Z,10.42
2016-11-24T06:45:25.044Z,10.36
2016-11-24T06:46:35.087Z,10.33
2016-11-24T06:47:44.824Z,10.33
2016-11-24T06:48:55.170Z,10.36
2016-11-24T06:50:04.604Z,10.35
2016-11-24T06:51:14.630Z,10.32
2016-11-24T06:52:24.986Z,10.33
2016-11-24T06:53:35.339Z,10.33
2016-11-24T06:54:45.674Z,10.33
2016-11-24T06:55:55.729Z,10.35
2016-11-24T06:57:06.082Z,10.33
2016-11-24T06:58:16.106Z,10.42
2016-11-24T06:59:26.451Z,10.42
2016-11-24T07:00:36.806Z,10.44
2016-11-24T07:01:47.157Z,10.46
2016-11-24T07:02:57.490Z,10.38
2016-11-24T07:04:07.850Z,10.46
2016-11-24T07:05:18.205Z,10.38
2016-11-24T07:06:28.229Z,10.41
2016-11-24T07:07:38.576Z,10.38
2016-11-24T07:08:48.593Z,10.44
2016-11-24T07:09:58.611Z,10.44
2016-11-24T07:11:08.961Z,10.44
2016-11-24T07:12:18.377Z,10.38
2016-11-24T07:13:28.421Z,10.44
2016-11-24T07:14:38.456Z,10.46
2016-11-24T07:15:48.796Z,10.42
2016-11-24T07:16:58.843Z,10.38
2016-11-24T07:18:08.875Z,10.46
2016-11-24T07:19:19.261Z,10.52
2016-11-24T07:20:28.997Z,10.49
2016-11-24T07:21:39.340Z,10.55
2016-11-24T07:22:49.381Z,10.44
2016-11-24T07:23:59.403Z,10.54
2016-11-24T07:25:09.427Z,10.54
2016-11-24T07:26:19.770Z,10.51
2016-11-24T07:27:30.114Z,10.52
2016-11-24T07:28:40.129Z,10.58
2016-11-24T07:29:50.167Z,10.52
2016-11-24T07:31:00.505Z,10.55
2016-11-24T07:32:10.237Z,10.52
2016-11-24T07:33:20.273Z,10.55
2016-11-24T07:34:30.613Z,10.59
2016-11-24T07:35:40.337Z,10.49
2016-11-24T07:36:50.386Z,10.46
2016-11-24T07:38:00.424Z,10.55
2016-11-24T07:39:10.171Z,10.39
2016-11-24T07:40:20.192Z,10.38
2016-11-24T07:41:30.566Z,10.39
2016-11-24T07:42:40.591Z,10.39
2016-11-24T07:43:50.323Z,10.35
2016-11-24T07:45:00.685Z,10.42
2016-11-24T07:46:11.032Z,10.35
2016-11-24T07:47:21.063Z,10.35
2016-11-24T07:48:31.082Z,10.41
2016-11-24T07:49:41.446Z,10.36
2016-11-24T07:50:51.170Z,10.36
2016-11-24T07:52:01.208Z,10.42
2016-11-24T07:53:11.258Z,10.44
2016-11-24T07:54:21.284Z,10.42
2016-11-24T07:55:31.637Z,10.38
2016-11-24T07:56:41.659Z,10.51
2016-11-24T07:57:51.689Z,10.52
2016-11-24T07:59:02.084Z,10.47
2016-11-24T08:00:12.439Z,10.54
2016-11-24T08:01:22.193Z,10.57
2016-11-24T08:02:32.566Z,10.63
2016-11-24T08:03:42.892Z,10.61
2016-11-24T08:04:52.915Z,10.69
2016-11-24T08:06:02.945Z,10.69
2016-11-24T08:07:12.984Z,10.69
2016-11-24T08:08:23.326Z,10.7
2016-11-24T08:09:33.027Z,10.58
2016-11-24T08:10:42.790Z,10.61
2016-11-24T08:11:52.544Z,10.59
2016-11-24T08:13:02.589Z,10.51
2016-11-24T08:14:12.939Z,10.58
2016-11-24T08:15:22.954Z,10.63
2016-11-24T08:16:33.326Z,10.63
2016-11-24T08:17:43.033Z,10.61
2016-11-24T08:18:53.390Z,10.66
2016-11-24T08:20:03.414Z,10.58
2016-11-24T08:21:13.126Z,10.59
2016-11-24T08:22:23.455Z,10.65
2016-11-24T08:23:33.497Z,10.58
2016-11-24T08:24:43.524Z,10.66
2016-11-24T08:25:53.240Z,10.61
2016-11-24T08:27:03.278Z,10.59
2016-11-24T08:28:13.627Z,10.66
2016-11-24T08:29:23.654Z,10.59
2016-11-24T08:30:33.698Z,10.69
2016-11-24T08:31:43.748Z,10.58
2016-11-24T08:32:54.087Z,10.67
2016-11-24T08:34:04.452Z,10.65
2016-11-24T08:35:14.480Z,10.67
2016-11-24T08:36:23.897Z,10.66
2016-11-24T08:37:34.258Z,10.58
2016-11-24T08:38:44.637Z,10.61
2016-11-24T08:39:54.675Z,10.73
2016-11-24T08:41:04.746Z,10.77
2016-11-24T08:42:15.084Z,10.77
2016-11-24T08:43:24.808Z,10.79
2016-11-24T08:44:35.175Z,10.8
2016-11-24T08:45:45.544Z,10.75
2016-11-24T08:46:55.906Z,10.63
2016-11-24T08:48:05.930Z,10.77
2016-11-24T08:49:15.984Z,10.77
2016-11-24T08:50:26.017Z,10.7
2016-11-24T08:51:35.734Z,10.73
2016-11-24T08:52:45.765Z,10.75
2016-11-24T08:53:55.479Z,10.95
2016-11-24T08:55:05.205Z,10.79
2016-11-24T08:56:15.561Z,10.88
2016-11-24T08:57:25.927Z,10.88
2016-11-24T08:58:36.288Z,10.87
2016-11-24T08:59:45.995Z,10.88
2016-11-24T09:00:56.047Z,10.91
2016-11-24T09:02:06.423Z,10.87
2016-11-24T09:03:16.780Z,10.91
2016-11-24T09:04:27.175Z,10.91
2016-11-24T09:05:37.512Z,11.02
2016-11-24T09:06:47.862Z,10.97
2016-11-24T09:07:57.601Z,11.06
2016-11-24T09:09:07.650Z,11.09
2016-11-24T09:10:17.990Z,11.06
2016-11-24T09:11:28.026Z,11.05
2016-11-24T09:12:38.071Z,11.12
2016-11-24T09:13:47.801Z,11.05
2016-11-24T09:14:57.513Z,11.18
2016-11-24T09:16:07.872Z,11.2
2016-11-24T09:17:17.944Z,11.18
2016-11-24T09:18:28.343Z,11.23
2016-11-24T09:19:38.694Z,11.12
2016-11-24T09:20:49.080Z,11.1
2016-11-24T09:21:59.439Z,11.16
2016-11-24T09:23:09.485Z,11.1
2016-11-24T09:24:19.866Z,11.1
2016-11-24T09:25:30.231Z,11.1
2016-11-24T09:26:40.588Z,11.13
2016-11-24T09:27:50.310Z,11.12
2016-11-24T09:29:00.376Z,11.13
2016-11-24T09:30:10.763Z,11.2
2016-11-24T09:31:20.809Z,11.15
2016-11-24T09:32:30.532Z,11.27
2016-11-24T09:33:40.885Z,11.18
2016-11-24T09:34:50.906Z,11.23
2016-11-24T09:36:00.616Z,11.18
2016-11-24T09:37:10.669Z,11.23
2016-11-24T09:38:21.034Z,11.23
2016-11-24T09:39:30.763Z,11.26
2016-11-24T09:40:40.806Z,11.27
2016-11-24T09:41:50.882Z,11.2
2016-11-24T09:43:00.931Z,11.27
2016-11-24T09:44:10.678Z,11.24
2016-11-24T09:45:20.115Z,11.24
2016-11-24T09:46:29.851Z,11.35
2016-11-24T09:47:40.425Z,11.39
2016-11-24T09:48:50.782Z,11.39
2016-11-24T09:50:00.831Z,11.42
2016-11-24T09:51:11.205Z,11.42
2016-11-24T09:52:21.573Z,11.38
2016-11-24T09:53:31.650Z,11.31
2016-11-24T09:54:42.014Z,11.41
2016-11-24T09:55:51.760Z,11.41
2016-11-24T09:57:01.479Z,11.42
2016-11-24T09:58:11.513Z,11.41
2016-11-24T09:59:21.856Z,11.31
2016-11-24T10:00:31.926Z,11.41
2016-11-24T10:01:42.305Z,11.38
2016-11-24T10:02:52.684Z,11.38
2016-11-24T10:04:02.419Z,11.33
2016-11-24T10:05:12.471Z,11.38
2016-11-24T10:06:22.830Z,11.31
2016-11-24T10:07:32.864Z,11.31
2016-11-24T10:08:42.618Z,11.38
2016-11-24T10:09:52.345Z,11.45
2016-11-24T10:11:02.715Z,11.43
2016-11-24T10:12:13.080Z,11.46
2016-11-24T10:13:23.466Z,11.48
2016-11-24T10:14:33.837Z,11.48
2016-11-24T10:15:43.268Z,11.51
2016-11-24T10:16:52.989Z,11.52
2016-11-24T10:18:03.053Z,11.53
2016-11-24T10:19:12.799Z,11.56
2016-11-24T10:20:22.530Z,11.57
2016-11-24T10:21:32.886Z,11.48
2016-11-24T10:22:42.919Z,11.51
2016-11-24T10:23:53.261Z,11.63
2016-11-24T10:25:03.290Z,11.7
2016-11-24T10:26:13.648Z,11.7
2016-11-24T10:27:23.698Z,11.64
2016-11-24T10:28:33.411Z,11.73
2016-11-24T10:29:43.766Z,11.63
2016-11-24T10:30:53.845Z,11.7
2016-11-24T10:32:04.172Z,11.57
2016-11-24T10:33:14.513Z,11.51
2016-11-24T10:34:24.542Z,11.45
2016-11-24T10:35:34.580Z,11.45
2016-11-24T10:36:44.659Z,11.38
2016-11-24T10:37:54.748Z,11.39
2016-11-24T10:39:04.468Z,11.38
2016-11-24T10:40:14.834Z,11.34
2016-11-24T10:41:25.205Z,11.33
2016-11-24T10:42:35.267Z,11.33
2016-11-24T10:43:45.297Z,11.3
2016-11-24T10:44:55.676Z,11.41
2016-11-24T10:46:05.712Z,11.39
2016-11-24T10:47:16.055Z,11.38
2016-11-24T10:48:26.444Z,11.38
2016-11-24T10:49:36.781Z,11.42
2016-11-24T10:50:46.534Z,11.34
2016-11-24T10:51:56.576Z,11.31
2016-11-24T10:53:06.628Z,11.39
2016-11-24T10:54:17.004Z,11.33
2016-11-24T10:55:27.054Z,11.38
2016-11-24T10:56:37.390Z,11.33
2016-11-24T10:57:47.420Z,11.43
2016-11-24T11:05:18.815Z,11.6
2016-11-24T11:06:29.162Z,11.63
2016-11-24T11:07:38.872Z,11.59
2016-11-24T11:08:49.221Z,11.57
2016-11-24T11:09:59.267Z,11.68
2016-11-24T11:11:09.306Z,11.71
2016-11-24T11:12:19.077Z,11.68
2016-11-24T11:13:29.103Z,11.7
2016-11-24T11:14:39.146Z,11.81
2016-11-24T11:15:49.516Z,11.78
2016-11-24T11:16:59.861Z,11.68
2016-11-24T11:18:09.577Z,11.67
2016-11-24T11:19:19.975Z,11.67
2016-11-24T11:20:30.010Z,11.59
2016-11-24T11:21:40.358Z,11.6
2016-11-24T11:22:50.934Z,11.64
2016-11-24T11:24:00.662Z,11.63
2016-11-24T11:25:10.711Z,11.61
2016-11-24T11:26:21.064Z,11.57
2016-11-24T11:27:30.492Z,11.7
2016-11-24T11:28:40.842Z,11.64
2016-11-24T11:29:51.195Z,11.67
2016-11-24T11:31:01.545Z,11.68
2016-11-24T11:32:10.959Z,11.7
2016-11-24T11:33:21.027Z,11.81
2016-11-24T11:34:31.366Z,11.64
2016-11-24T11:35:41.098Z,11.78
2016-11-24T11:36:51.441Z,11.76
2016-11-24T11:38:00.533Z,11.67
2016-11-24T11:39:10.248Z,11.68
2016-11-24T11:40:19.964Z,11.7
2016-11-24T11:41:30.018Z,11.57
2016-11-24T11:42:40.363Z,11.61
2016-11-24T11:43:50.436Z,11.68
2016-11-24T11:45:00.464Z,11.59
2016-11-24T11:46:10.807Z,11.63
2016-11-24T11:47:20.851Z,11.66
2016-11-24T11:48:30.878Z,11.6
2016-11-24T11:49:41.233Z,11.68
2016-11-24T11:50:50.957Z,11.64
2016-11-24T11:52:01.004Z,11.6
2016-11-24T11:53:11.413Z,11.71
2016-11-24T11:54:21.435Z,11.68
2016-11-24T11:55:31.504Z,11.68
2016-11-24T11:56:41.860Z,11.79
2016-11-24T11:57:51.905Z,11.76
2016-11-24T11:59:01.646Z,11.81
2016-11-24T12:00:11.675Z,11.94
2016-11-24T12:01:22.021Z,12
2016-11-24T12:02:31.442Z,11.98
2016-11-24T12:03:41.489Z,12.01
2016-11-24T12:04:51.217Z,12.08
2016-11-24T12:06:01.318Z,12.04
2016-11-24T12:07:11.670Z,12.04
2016-11-24T12:08:22.015Z,12.04
2016-11-24T12:09:32.048Z,12.11
2016-11-24T12:10:42.091Z,12.03
2016-11-24T12:11:52.144Z,12.03
2016-11-24T12:13:02.512Z,11.97
2016-11-24T12:14:12.574Z,12.03
2016-11-24T12:15:22.930Z,12.05
2016-11-24T12:16:33.294Z,12.18
2016-11-24T12:17:43.001Z,12.15
2016-11-24T12:18:53.358Z,12.07
2016-11-24T12:20:03.062Z,12.07
2016-11-24T12:21:13.130Z,11.97
2016-11-24T12:22:23.169Z,11.89
2016-11-24T12:23:33.518Z,11.95
2016-11-24T12:24:43.879Z,11.91
2016-11-24T12:25:53.652Z,11.86
2016-11-24T12:27:03.990Z,11.88
2016-11-24T12:28:14.377Z,11.81
2016-11-24T12:29:24.716Z,11.85
2016-11-24T12:30:34.433Z,11.76
2016-11-24T12:31:44.505Z,11.76
2016-11-24T12:32:54.868Z,11.68
2016-11-24T12:34:05.198Z,11.67
2016-11-24T12:35:15.542Z,11.73
2016-11-24T12:36:25.264Z,11.78
2016-11-24T12:37:35.606Z,11.79
2016-11-24T12:38:45.334Z,11.79
2016-11-24T12:39:55.688Z,11.71
2016-11-24T12:41:06.056Z,11.75
2016-11-24T12:42:16.088Z,11.75
2016-11-24T12:43:26.128Z,11.68
2016-11-24T12:44:36.167Z,11.82
2016-11-24T12:45:45.882Z,11.79
2016-11-24T12:46:55.945Z,11.68
2016-11-24T12:48:06.279Z,11.84
2016-11-24T12:49:16.640Z,11.78
2016-11-24T12:50:26.672Z,11.81
2016-11-24T12:51:36.397Z,11.82
2016-11-24T12:52:46.424Z,11.78
2016-11-24T12:53:56.459Z,11.82
2016-11-24T12:55:06.506Z,11.81
2016-11-24T12:56:16.451Z,11.81
2016-11-24T12:57:26.550Z,11.75
2016-11-24T12:58:36.981Z,11.79
2016-11-24T12:59:47.008Z,11.73
2016-11-24T13:00:56.808Z,11.78
2016-11-24T13:02:08.909Z,11.75
2016-11-24T13:03:21.090Z,11.81
2016-11-24T13:04:33.553Z,11.84
2016-11-24T13:05:45.534Z,11.7
2016-11-24T13:06:58.967Z,11.79
2016-11-24T13:08:12.668Z,11.73
2016-11-24T13:09:25.468Z,11.71
2016-11-24T13:10:37.878Z,11.67
2016-11-24T13:11:51.489Z,11.75
2016-11-24T13:13:06.173Z,11.71
2016-11-24T13:14:18.990Z,11.71
2016-11-24T13:15:31.902Z,11.67
2016-11-24T13:16:45.195Z,11.73
2016-11-24T13:17:58.222Z,11.7
2016-11-24T13:19:12.178Z,11.63
2016-11-24T13:20:24.288Z,11.64
2016-11-24T13:21:38.177Z,11.49
2016-11-24T13:22:51.256Z,11.56
2016-11-24T13:24:04.398Z,11.46
2016-11-24T13:25:17.740Z,11.51
2016-11-24T13:26:30.505Z,11.48
2016-11-24T13:27:43.395Z,11.49
2016-11-24T13:28:55.859Z,11.48
2016-11-24T13:30:08.279Z,11.59
2016-11-24T13:31:18.230Z,11.45
2016-11-24T13:32:28.384Z,11.46
2016-11-24T13:33:38.579Z,11.46
2016-11-24T13:34:49.097Z,11.41
2016-11-24T13:35:59.591Z,11.38
2016-11-24T13:37:09.479Z,11.42
2016-11-24T13:38:19.930Z,11.45
2016-11-24T13:39:30.465Z,11.39
2016-11-24T13:40:40.606Z,11.39
2016-11-24T13:41:50.685Z,11.33
2016-11-24T13:43:01.217Z,11.41
2016-11-24T13:44:11.429Z,11.33
2016-11-24T13:45:21.164Z,11.42
2016-11-24T13:46:31.667Z,11.38
2016-11-24T13:47:41.466Z,11.3
2016-11-24T13:48:51.558Z,11.3
2016-11-24T13:50:01.635Z,11.33
2016-11-24T13:51:12.042Z,11.16
2016-11-24T13:52:22.169Z,11.23
2016-11-24T13:53:32.562Z,11.2
2016-11-24T13:54:42.293Z,11.27
2016-11-24T13:55:52.326Z,11.2
2016-11-24T13:57:02.749Z,11.26
2016-11-24T13:58:12.914Z,11.16
2016-11-24T13:59:22.959Z,11.16
2016-11-24T14:00:32.739Z,11.18
2016-11-24T14:01:42.954Z,11.21
2016-11-24T14:02:53.012Z,11.3
2016-11-24T14:04:03.110Z,11.24
2016-11-24T14:05:13.500Z,11.26
2016-11-24T14:06:23.949Z,11.24
2016-11-24T14:07:34.024Z,11.27
2016-11-24T14:08:44.107Z,11.23
2016-11-24T14:09:54.221Z,11.31
2016-11-24T14:11:03.958Z,11.24
2016-11-24T14:12:14.051Z,11.21
2016-11-24T14:13:24.091Z,11.18
2016-11-24T14:14:34.453Z,11.2
2016-11-24T14:15:44.843Z,11.2
2016-11-24T14:16:54.242Z,11.2
2016-11-24T14:18:04.763Z,11.28
2016-11-24T14:19:15.175Z,11.27
2016-11-24T14:20:25.317Z,11.34
2016-11-24T14:21:35.525Z,11.26
2016-11-24T14:22:45.979Z,11.35
2016-11-24T14:23:55.766Z,11.27
2016-11-24T14:25:05.832Z,11.33
2016-11-24T14:26:16.213Z,11.3
2016-11-24T14:27:26.797Z,11.23
2016-11-24T14:28:38.416Z,11.21
2016-11-24T14:29:49.362Z,11.21
2016-11-24T14:31:01.301Z,11.16
2016-11-24T14:32:13.747Z,11.23
2016-11-24T14:33:25.454Z,11.18
2016-11-24T14:34:37.983Z,11.16
2016-11-24T14:35:50.769Z,11.27
2016-11-24T14:37:01.656Z,11.28
2016-11-24T14:38:12.205Z,11.15
2016-11-24T14:39:24.296Z,11.23
2016-11-24T14:40:36.994Z,11.23
2016-11-24T14:41:50.257Z,11.24
2016-11-24T14:43:02.240Z,11.24
2016-11-24T14:44:13.434Z,11.3
2016-11-24T14:45:25.126Z,11.2
2016-11-24T14:46:37.362Z,11.2
2016-11-24T14:47:50.388Z,11.2
2016-11-24T14:49:01.954Z,11.24
2016-11-24T14:50:13.548Z,11.15
2016-11-24T14:51:25.204Z,11.24
2016-11-24T14:52:37.716Z,11.31
2016-11-24T14:53:50.400Z,11.24
2016-11-24T14:55:03.345Z,11.24
2016-11-24T14:56:15.505Z,11.23
2016-11-24T14:57:27.279Z,11.23
2016-11-24T14:58:38.564Z,11.3
2016-11-24T14:59:50.557Z,11.18
2016-11-24T15:01:03.387Z,11.26
2016-11-24T15:02:14.389Z,11.26
2016-11-24T15:03:24.781Z,11.21
2016-11-24T15:04:37.042Z,11.18
2016-11-24T15:05:48.080Z,11.2
2016-11-24T15:06:58.115Z,11.27
2016-11-24T15:08:08.467Z,11.27
2016-11-24T15:09:18.501Z,11.28
2016-11-24T15:10:28.861Z,11.15
2016-11-24T15:11:39.231Z,11.21
2016-11-24T15:12:49.590Z,11.13
2016-11-24T15:13:59.921Z,11.26
2016-11-24T15:15:10.247Z,11.23
2016-11-24T15:16:20.625Z,11.26
2016-11-24T15:17:30.361Z,11.24
2016-11-24T15:18:40.142Z,11.18
2016-11-24T15:19:50.205Z,11.2
2016-11-24T15:21:00.536Z,11.23
2016-11-24T15:22:10.892Z,11.21
2016-11-24T15:23:21.234Z,11.2
2016-11-24T15:24:31.566Z,11.23
2016-11-24T15:25:41.327Z,11.2
2016-11-24T15:26:51.683Z,11.24
2016-11-24T15:28:01.750Z,11.31
2016-11-24T15:29:11.782Z,11.23
2016-11-24T15:30:22.122Z,11.15
2016-11-24T15:31:31.839Z,11.16
2016-11-24T15:32:42.193Z,11.23
2016-11-24T15:33:52.260Z,11.18
2016-11-24T15:35:02.631Z,11.24
2016-11-24T15:36:12.672Z,11.21
2016-11-24T15:37:23.031Z,11.28
2016-11-24T15:38:33.372Z,11.26
2016-11-24T15:39:43.737Z,11.26
2016-11-24T15:40:54.079Z,11.23
2016-11-24T15:42:04.150Z,11.21
2016-11-24T15:43:14.181Z,11.21
2016-11-24T15:44:24.219Z,11.21